Garland City, Arkansas
Current Conditions -  °F | °C
As of 5:53 AM on Monday 24 Nov 2014 (Local Time) from KTXK Reporting Station
Clear Clear  
Wind Chill: 42°   Ceiling: Unl
Heat Index: 46°   Visibility: 10mi
Dew Point: 37°   Wind: 8mph
Humidity: 71%   Direction: 290°WNW
Pressure: 29.88"   Gusts: NA
Location:  33.35°N, 93.75°W
Report Text: KTXK 241153Z 29007KT 10SM CLR 08/03 A2988 RMK AO2 SLP115 70016 T00780028 10122 20072 51031 $
Loading
Personal Weather Stations






























Interactive Weather Map New forecast layout! Learn more

10-Day Weather Forecast

Advertisements
Track Severe Weather on mobile